sensor_id;sensor_type;location;lat;lon;timestamp;pressure;altitude;pressure_sealevel;temperature;humidity
70133;BME280;57495;49.922;7.966;2023-02-27T00:01:59;100766.06;;;-0.53;63.84
70133;BME280;57495;49.922;7.966;2023-02-27T00:04:00;100759.81;;;-0.51;63.65
70133;BME280;57495;49.922;7.966;2023-02-27T00:06:03;100762.97;;;-0.41;63.26
70133;BME280;57495;49.922;7.966;2023-02-27T00:08:05;100758.75;;;-0.45;63.61
70133;BME280;57495;49.922;7.966;2023-02-27T00:10:07;100759.59;;;-0.45;63.21
70133;BME280;57495;49.922;7.966;2023-02-27T00:12:11;100759.56;;;-0.43;63.34
70133;BME280;57495;49.922;7.966;2023-02-27T00:14:12;100766.69;;;-0.47;63.66
70133;BME280;57495;49.922;7.966;2023-02-27T00:16:13;100756.16;;;-0.47;63.87
70133;BME280;57495;49.922;7.966;2023-02-27T00:18:15;100762.19;;;-0.43;63.64
70133;BME280;57495;49.922;7.966;2023-02-27T00:20:17;100756.41;;;-0.53;63.94
70133;BME280;57495;49.922;7.966;2023-02-27T00:22:19;100756.41;;;-0.53;64.32
70133;BME280;57495;49.922;7.966;2023-02-27T00:24:20;100760.69;;;-0.50;63.85
70133;BME280;57495;49.922;7.966;2023-02-27T00:26:22;100756.31;;;-0.50;63.99
70133;BME280;57495;49.922;7.966;2023-02-27T00:28:25;100758.09;;;-0.52;63.61
70133;BME280;57495;49.922;7.966;2023-02-27T00:30:27;100760.69;;;-0.50;64.08
70133;BME280;57495;49.922;7.966;2023-02-27T00:32:28;100755.47;;;-0.52;63.95
70133;BME280;57495;49.922;7.966;2023-02-27T00:34:30;100758.81;;;-0.47;63.45
70133;BME280;57495;49.922;7.966;2023-02-27T00:36:31;100756.03;;;-0.42;63.48
70133;BME280;57495;49.922;7.966;2023-02-27T00:38:33;100749.84;;;-0.41;63.37
70133;BME280;57495;49.922;7.966;2023-02-27T00:40:35;100756.16;;;-0.47;63.40
70133;BME280;57495;49.922;7.966;2023-02-27T00:42:36;100761.31;;;-0.44;63.34
70133;BME280;57495;49.922;7.966;2023-02-27T00:44:39;100761.75;;;-0.56;64.05
70133;BME280;57495;49.922;7.966;2023-02-27T00:46:41;100764.31;;;-0.54;63.47
70133;BME280;57495;49.922;7.966;2023-02-27T00:48:42;100760.81;;;-0.53;63.72
70133;BME280;57495;49.922;7.966;2023-02-27T00:50:44;100760.81;;;-0.53;63.85
70133;BME280;57495;49.922;7.966;2023-02-27T00:52:45;100757.91;;;-0.46;63.28
70133;BME280;57495;49.922;7.966;2023-02-27T00:54:47;100765.72;;;-0.44;63.42
70133;BME280;57495;49.922;7.966;2023-02-27T00:56:48;100757.06;;;-0.46;63.75
70133;BME280;57495;49.922;7.966;2023-02-27T00:58:49;100766.91;;;-0.53;63.54
70133;BME280;57495;49.922;7.966;2023-02-27T01:00:52;100760.56;;;-0.47;63.41
70133;BME280;57495;49.922;7.966;2023-02-27T01:02:54;100761.56;;;-0.50;63.39
70133;BME280;57495;49.922;7.966;2023-02-27T01:04:55;100754.94;;;-0.62;63.83
70133;BME280;57495;49.922;7.966;2023-02-27T01:06:56;100760.81;;;-0.53;63.72
70133;BME280;57495;49.922;7.966;2023-02-27T01:08:58;100757.63;;;-0.63;64.19
70133;BME280;57495;49.922;7.966;2023-02-27T01:10:59;100766.25;;;-0.60;64.22
70133;BME280;57495;49.922;7.966;2023-02-27T01:13:01;100758.19;;;-0.53;63.88
70133;BME280;57495;49.922;7.966;2023-02-27T01:15:03;100760.69;;;-0.50;63.93
70133;BME280;57495;49.922;7.966;2023-02-27T01:17:06;100759.88;;;-0.52;63.74
70133;BME280;57495;49.922;7.966;2023-02-27T01:19:08;100760.06;;;-0.57;63.54
70133;BME280;57495;49.922;7.966;2023-02-27T01:21:09;100766.47;;;-0.66;64.38
70133;BME280;57495;49.922;7.966;2023-02-27T01:23:11;100764.66;;;-0.64;64.10
70133;BME280;57495;49.922;7.966;2023-02-27T01:25:12;100766.16;;;-0.56;64.16
70133;BME280;57495;49.922;7.966;2023-02-27T01:27:14;100764.06;;;-0.72;64.70
70133;BME280;57495;49.922;7.966;2023-02-27T01:29:15;100764.75;;;-0.67;64.66
70133;BME280;57495;49.922;7.966;2023-02-27T01:31:17;100760.38;;;-0.66;64.65
70133;BME280;57495;49.922;7.966;2023-02-27T01:33:20;100762.13;;;-0.67;64.54
70133;BME280;57495;49.922;7.966;2023-02-27T01:35:21;100764.22;;;-0.76;65.39
70133;BME280;57495;49.922;7.966;2023-02-27T01:37:23;100759.66;;;-0.71;64.78
70133;BME280;57495;49.922;7.966;2023-02-27T01:39:24;100758.91;;;-0.75;65.31
70133;BME280;57495;49.922;7.966;2023-02-27T01:41:26;100756.19;;;-0.72;64.69
70133;BME280;57495;49.922;7.966;2023-02-27T01:43:28;100756.81;;;-0.65;64.90
70133;BME280;57495;49.922;7.966;2023-02-27T01:45:32;100757.00;;;-0.70;65.32
70133;BME280;57495;49.922;7.966;2023-02-27T01:47:35;100763.31;;;-0.75;65.49
70133;BME280;57495;49.922;7.966;2023-02-27T01:49:38;100755.22;;;-0.69;65.45
70133;BME280;57495;49.922;7.966;2023-02-27T01:51:43;100761.75;;;-0.81;65.88
70133;BME280;57495;49.922;7.966;2023-02-27T01:53:48;100758.38;;;-0.85;65.72
70133;BME280;57495;49.922;7.966;2023-02-27T01:55:52;100757.19;;;-0.76;65.28
70133;BME280;57495;49.922;7.966;2023-02-27T01:57:55;100749.31;;;-0.76;65.22
70133;BME280;57495;49.922;7.966;2023-02-27T01:59:57;100748.03;;;-0.64;64.84
70133;BME280;57495;49.922;7.966;2023-02-27T02:02:00;100745.56;;;-0.69;65.44
70133;BME280;57495;49.922;7.966;2023-02-27T02:04:07;100748.19;;;-0.69;65.49
70133;BME280;57495;49.922;7.966;2023-02-27T02:06:11;100743.72;;;-0.67;65.11
70133;BME280;57495;49.922;7.966;2023-02-27T02:08:14;100741.84;;;-0.63;65.54
70133;BME280;57495;49.922;7.966;2023-02-27T02:10:18;100739.56;;;-0.72;65.63
70133;BME280;57495;49.922;7.966;2023-02-27T02:12:24;100743.31;;;-0.80;65.94
70133;BME280;57495;49.922;7.966;2023-02-27T02:14:26;100745.69;;;-0.72;65.99
70133;BME280;57495;49.922;7.966;2023-02-27T02:16:45;100743.00;;;-0.70;65.73
70133;BME280;57495;49.922;7.966;2023-02-27T02:18:53;100745.78;;;-0.75;66.29
70133;BME280;57495;49.922;7.966;2023-02-27T02:21:22;100744.03;;;-0.76;66.13
70133;BME280;57495;49.922;7.966;2023-02-27T02:26:21;100742.09;;;-0.69;65.93
70133;BME280;57495;49.922;7.966;2023-02-27T02:28:42;100745.50;;;-0.67;65.56
70133;BME280;57495;49.922;7.966;2023-02-27T02:36:27;100754.47;;;-0.73;65.60
70133;BME280;57495;49.922;7.966;2023-02-27T02:38:55;100753.66;;;-0.75;65.62
70133;BME280;57495;49.922;7.966;2023-02-27T02:41:06;100757.56;;;-0.87;66.00
70133;BME280;57495;49.922;7.966;2023-02-27T02:43:13;100750.38;;;-0.82;65.69
70133;BME280;57495;49.922;7.966;2023-02-27T02:45:24;100739.69;;;-0.75;65.29
70133;BME280;57495;49.922;7.966;2023-02-27T02:47:31;100747.59;;;-0.77;65.10
70133;BME280;57495;49.922;7.966;2023-02-27T02:49:42;100739.72;;;-0.77;65.48
70133;BME280;57495;49.922;7.966;2023-02-27T02:51:49;100740.44;;;-0.72;65.32
70133;BME280;57495;49.922;7.966;2023-02-27T02:53:59;100744.03;;;-0.76;65.23
70133;BME280;57495;49.922;7.966;2023-02-27T02:56:05;100734.94;;;-0.91;65.86
70133;BME280;57495;49.922;7.966;2023-02-27T02:58:14;100745.34;;;-0.88;65.34
70133;BME280;57495;49.922;7.966;2023-02-27T03:00:20;100753.16;;;-0.86;65.53
70133;BME280;57495;49.922;7.966;2023-02-27T03:02:26;100755.00;;;-0.88;65.54
70133;BME280;57495;49.922;7.966;2023-02-27T03:04:33;100748.81;;;-0.87;65.26
70133;BME280;57495;49.922;7.966;2023-02-27T03:06:39;100751.59;;;-0.92;65.27
70133;BME280;57495;49.922;7.966;2023-02-27T03:08:45;100756.69;;;-0.87;65.40
70133;BME280;57495;49.922;7.966;2023-02-27T03:10:53;100746.41;;;-0.93;65.45
70133;BME280;57495;49.922;7.966;2023-02-27T03:12:59;100751.44;;;-0.87;65.18
70133;BME280;57495;49.922;7.966;2023-02-27T03:15:06;100750.63;;;-0.89;65.30
70133;BME280;57495;49.922;7.966;2023-02-27T03:17:15;100759.53;;;-0.93;65.39
70133;BME280;57495;49.922;7.966;2023-02-27T03:19:21;100757.00;;;-0.97;65.49
70133;BME280;57495;49.922;7.966;2023-02-27T03:21:26;100758.78;;;-0.97;65.68
70133;BME280;57495;49.922;7.966;2023-02-27T03:23:35;100754.59;;;-1.03;65.47
70133;BME280;57495;49.922;7.966;2023-02-27T03:25:39;100755.09;;;-0.91;65.62
70133;BME280;57495;49.922;7.966;2023-02-27T03:27:50;100753.56;;;-0.99;65.26
70133;BME280;57495;49.922;7.966;2023-02-27T03:29:56;100750.03;;;-0.98;65.31
70133;BME280;57495;49.922;7.966;2023-02-27T03:32:01;100760.59;;;-0.99;65.37
70133;BME280;57495;49.922;7.966;2023-02-27T03:34:11;100764.72;;;-0.92;64.82
70133;BME280;57495;49.922;7.966;2023-02-27T03:36:17;100758.47;;;-0.88;65.02
70133;BME280;57495;49.922;7.966;2023-02-27T03:38:25;100761.19;;;-0.91;64.74
70133;BME280;57495;49.922;7.966;2023-02-27T03:40:34;100763.00;;;-0.93;64.98
70133;BME280;57495;49.922;7.966;2023-02-27T03:42:38;100760.53;;;-0.98;65.07
70133;BME280;57495;49.922;7.966;2023-02-27T03:44:51;100769.44;;;-1.02;64.97
70133;BME280;57495;49.922;7.966;2023-02-27T03:46:55;100772.88;;;-1.00;65.25
70133;BME280;57495;49.922;7.966;2023-02-27T03:48:56;100776.38;;;-1.01;65.17
70133;BME280;57495;49.922;7.966;2023-02-27T03:50:58;100776.47;;;-1.04;64.98
70133;BME280;57495;49.922;7.966;2023-02-27T03:53:03;100776.47;;;-1.04;65.09
70133;BME280;57495;49.922;7.966;2023-02-27T03:55:10;100774.88;;;-1.08;65.31
70133;BME280;57495;49.922;7.966;2023-02-27T03:57:13;100776.38;;;-1.01;65.00
70133;BME280;57495;49.922;7.966;2023-02-27T03:59:15;100776.38;;;-1.01;65.33
70133;BME280;57495;49.922;7.966;2023-02-27T04:01:18;100782.03;;;-1.13;65.32
70133;BME280;57495;49.922;7.966;2023-02-27T04:03:21;100776.56;;;-1.05;65.53
70133;BME280;57495;49.922;7.966;2023-02-27T04:05:22;100780.13;;;-1.08;65.33
70133;BME280;57495;49.922;7.966;2023-02-27T04:07:28;100786.97;;;-1.04;65.52
70133;BME280;57495;49.922;7.966;2023-02-27T04:09:43;100780.91;;;-1.06;65.44
70133;BME280;57495;49.922;7.966;2023-02-27T04:11:57;100787.94;;;-1.06;65.05
70133;BME280;57495;49.922;7.966;2023-02-27T04:14:19;100788.63;;;-1.00;65.27
70133;BME280;57495;49.922;7.966;2023-02-27T04:16:51;100791.13;;;-0.97;64.88
70133;BME280;57495;49.922;7.966;2023-02-27T04:19:09;100795.69;;;-1.02;64.64
70133;BME280;57495;49.922;7.966;2023-02-27T04:21:17;100797.72;;;-1.11;65.25
70133;BME280;57495;49.922;7.966;2023-02-27T04:23:24;100806.56;;;-1.14;65.25
70133;BME280;57495;49.922;7.966;2023-02-27T04:25:38;100802.16;;;-1.13;65.42
70133;BME280;57495;49.922;7.966;2023-02-27T04:27:48;100797.69;;;-1.10;65.18
70133;BME280;57495;49.922;7.966;2023-02-27T04:29:54;100806.66;;;-1.17;65.06
70133;BME280;57495;49.922;7.966;2023-02-27T04:32:01;100800.63;;;-1.21;65.23
70133;BME280;57495;49.922;7.966;2023-02-27T04:34:09;100807.38;;;-1.12;65.13
70133;BME280;57495;49.922;7.966;2023-02-27T04:36:20;100806.75;;;-1.20;64.80
70133;BME280;57495;49.922;7.966;2023-02-27T04:38:27;100810.84;;;-1.11;64.73
70133;BME280;57495;49.922;7.966;2023-02-27T04:40:33;100811.91;;;-1.17;64.82
70133;BME280;57495;49.922;7.966;2023-02-27T04:42:39;100814.56;;;-1.19;65.03
70133;BME280;57495;49.922;7.966;2023-02-27T04:44:43;100813.66;;;-1.18;64.92
70133;BME280;57495;49.922;7.966;2023-02-27T04:46:46;100807.75;;;-1.24;64.86
70133;BME280;57495;49.922;7.966;2023-02-27T04:48:53;100813.81;;;-1.22;64.96
70133;BME280;57495;49.922;7.966;2023-02-27T04:51:02;100817.56;;;-1.29;65.65
70133;BME280;57495;49.922;7.966;2023-02-27T04:53:10;100814.00;;;-1.28;65.15
70133;BME280;57495;49.922;7.966;2023-02-27T04:55:18;100810.28;;;-1.21;64.50
70133;BME280;57495;49.922;7.966;2023-02-27T04:57:26;100812.91;;;-1.21;64.55
70133;BME280;57495;49.922;7.966;2023-02-27T04:59:31;100818.91;;;-1.18;64.22
70133;BME280;57495;49.922;7.966;2023-02-27T05:01:38;100818.03;;;-1.17;63.91
70133;BME280;57495;49.922;7.966;2023-02-27T05:03:45;100824.13;;;-1.16;63.94
70133;BME280;57495;49.922;7.966;2023-02-27T05:05:51;100818.75;;;-1.13;63.59
70133;BME280;57495;49.922;7.966;2023-02-27T05:07:57;100818.03;;;-1.17;64.18
70133;BME280;57495;49.922;7.966;2023-02-27T05:10:02;100818.97;;;-1.19;64.41
70133;BME280;57495;49.922;7.966;2023-02-27T05:12:11;100826.19;;;-1.26;64.42
70133;BME280;57495;49.922;7.966;2023-02-27T05:14:19;100819.16;;;-1.25;64.30
70133;BME280;57495;49.922;7.966;2023-02-27T05:16:25;100830.59;;;-1.28;64.80
70133;BME280;57495;49.922;7.966;2023-02-27T05:18:28;100824.50;;;-1.28;64.47
70133;BME280;57495;49.922;7.966;2023-02-27T05:20:32;100829.66;;;-1.25;64.40
70133;BME280;57495;49.922;7.966;2023-02-27T05:22:44;100829.66;;;-1.25;64.25
70133;BME280;57495;49.922;7.966;2023-02-27T05:24:51;100837.66;;;-1.30;64.25
70133;BME280;57495;49.922;7.966;2023-02-27T05:27:06;100835.78;;;-1.26;64.22
70133;BME280;57495;49.922;7.966;2023-02-27T05:29:12;100840.81;;;-1.19;64.19
70133;BME280;57495;49.922;7.966;2023-02-27T05:31:22;100841.78;;;-1.21;63.87
70133;BME280;57495;49.922;7.966;2023-02-27T05:33:27;100839.50;;;-1.33;64.48
70133;BME280;57495;49.922;7.966;2023-02-27T05:35:34;100836.72;;;-1.27;64.10
70133;BME280;57495;49.922;7.966;2023-02-27T05:37:44;100841.94;;;-1.26;63.90
70133;BME280;57495;49.922;7.966;2023-02-27T05:39:47;100842.66;;;-1.22;63.97
70133;BME280;57495;49.922;7.966;2023-02-27T05:41:53;100850.78;;;-1.30;64.64
70133;BME280;57495;49.922;7.966;2023-02-27T05:44:00;100848.16;;;-1.30;64.20
70133;BME280;57495;49.922;7.966;2023-02-27T05:46:05;100853.34;;;-1.28;63.90
70133;BME280;57495;49.922;7.966;2023-02-27T05:48:11;100843.88;;;-1.32;64.27
70133;BME280;57495;49.922;7.966;2023-02-27T05:50:17;100846.16;;;-1.22;64.09
70133;BME280;57495;49.922;7.966;2023-02-27T05:52:23;100852.22;;;-1.20;63.63
70133;BME280;57495;49.922;7.966;2023-02-27T05:54:32;100853.56;;;-1.34;63.90
70133;BME280;57495;49.922;7.966;2023-02-27T05:56:35;100854.09;;;-1.23;63.51
70133;BME280;57495;49.922;7.966;2023-02-27T05:58:40;100863.56;;;-1.19;63.68
70133;BME280;57495;49.922;7.966;2023-02-27T06:00:45;100860.09;;;-1.20;63.94
70133;BME280;57495;49.922;7.966;2023-02-27T06:02:49;100862.69;;;-1.18;63.79
70133;BME280;57495;49.922;7.966;2023-02-27T06:04:50;100866.38;;;-1.25;64.11
70133;BME280;57495;49.922;7.966;2023-02-27T06:06:52;100866.47;;;-1.28;63.95
70133;BME280;57495;49.922;7.966;2023-02-27T06:08:54;100862.97;;;-1.27;63.99
70133;BME280;57495;49.922;7.966;2023-02-27T06:10:57;100869.91;;;-1.26;64.44
70133;BME280;57495;49.922;7.966;2023-02-27T06:12:58;100870.19;;;-1.36;64.43
70133;BME280;57495;49.922;7.966;2023-02-27T06:14:59;100877.97;;;-1.32;64.20
70133;BME280;57495;49.922;7.966;2023-02-27T06:17:01;100878.97;;;-1.37;64.70
70133;BME280;57495;49.922;7.966;2023-02-27T06:19:03;100877.78;;;-1.26;64.95
70133;BME280;57495;49.922;7.966;2023-02-27T06:21:04;100882.31;;;-1.31;64.70
70133;BME280;57495;49.922;7.966;2023-02-27T06:23:06;100887.41;;;-1.27;64.57
70133;BME280;57495;49.922;7.966;2023-02-27T06:25:09;100888.50;;;-1.34;64.84
70133;BME280;57495;49.922;7.966;2023-02-27T06:27:11;100896.06;;;-1.23;64.58
70133;BME280;57495;49.922;7.966;2023-02-27T06:29:13;100885.06;;;-1.36;64.69
70133;BME280;57495;49.922;7.966;2023-02-27T06:31:14;100896.25;;;-1.29;64.67
70133;BME280;57495;49.922;7.966;2023-02-27T06:33:16;100897.19;;;-1.32;64.87
70133;BME280;57495;49.922;7.966;2023-02-27T06:35:17;100894.53;;;-1.30;65.59
70133;BME280;57495;49.922;7.966;2023-02-27T06:37:19;100905.00;;;-1.30;65.25
70133;BME280;57495;49.922;7.966;2023-02-27T06:39:21;100901.38;;;-1.26;65.01
70133;BME280;57495;49.922;7.966;2023-02-27T06:41:23;100908.38;;;-1.25;65.28
70133;BME280;57495;49.922;7.966;2023-02-27T06:43:26;100909.38;;;-1.29;65.75
70133;BME280;57495;49.922;7.966;2023-02-27T06:45:27;100895.53;;;-1.34;65.81
70133;BME280;57495;49.922;7.966;2023-02-27T06:47:28;100891.34;;;-1.42;65.76
70133;BME280;57495;49.922;7.966;2023-02-27T06:49:30;100899.84;;;-1.33;66.10
70133;BME280;57495;49.922;7.966;2023-02-27T06:51:31;100904.81;;;-1.24;65.86
70133;BME280;57495;49.922;7.966;2023-02-27T06:53:33;100899.50;;;-1.21;65.60
70133;BME280;57495;49.922;7.966;2023-02-27T06:55:34;100898.63;;;-1.22;65.26
70133;BME280;57495;49.922;7.966;2023-02-27T06:57:36;100903.69;;;-1.15;65.48
70133;BME280;57495;49.922;7.966;2023-02-27T06:59:39;100905.56;;;-1.19;65.89
70133;BME280;57495;49.922;7.966;2023-02-27T07:01:41;100913.38;;;-1.18;66.04
70133;BME280;57495;49.922;7.966;2023-02-27T07:03:42;100914.34;;;-1.20;65.83
70133;BME280;57495;49.922;7.966;2023-02-27T07:05:44;100912.16;;;-1.36;66.72
70133;BME280;57495;49.922;7.966;2023-02-27T07:07:45;100913.63;;;-1.25;66.55
70133;BME280;57495;49.922;7.966;2023-02-27T07:09:47;100913.34;;;-1.16;66.38
70133;BME280;57495;49.922;7.966;2023-02-27T07:11:48;100909.97;;;-1.21;66.38
70133;BME280;57495;49.922;7.966;2023-02-27T07:13:50;100913.41;;;-1.19;66.51
70133;BME280;57495;49.922;7.966;2023-02-27T07:15:53;100918.13;;;-1.01;66.40
70133;BME280;57495;49.922;7.966;2023-02-27T07:17:54;100911.16;;;-1.02;66.44
70133;BME280;57495;49.922;7.966;2023-02-27T07:19:56;100910.72;;;-0.88;66.07
70133;BME280;57495;49.922;7.966;2023-02-27T07:21:57;100906.66;;;-0.70;65.67
70133;BME280;57495;49.922;7.966;2023-02-27T07:23:59;100904.84;;;-0.68;64.99
70133;BME280;57495;49.922;7.966;2023-02-27T07:26:01;100899.09;;;-0.52;65.08
70133;BME280;57495;49.922;7.966;2023-02-27T07:28:03;100907.38;;;-0.38;64.67
70133;BME280;57495;49.922;7.966;2023-02-27T07:30:07;100905.88;;;-0.18;64.06
70133;BME280;57495;49.922;7.966;2023-02-27T07:32:10;100913.00;;;0.03;63.59
70133;BME280;57495;49.922;7.966;2023-02-27T07:34:11;100913.84;;;0.04;63.29
70133;BME280;57495;49.922;7.966;2023-02-27T07:36:14;100914.50;;;0.10;62.93
70133;BME280;57495;49.922;7.966;2023-02-27T07:38:16;100919.91;;;0.31;62.94
70133;BME280;57495;49.922;7.966;2023-02-27T07:40:18;100919.34;;;0.46;62.75
70133;BME280;57495;49.922;7.966;2023-02-27T07:42:19;100921.44;;;0.62;61.78
70133;BME280;57495;49.922;7.966;2023-02-27T07:44:21;100923.66;;;0.72;61.40
70133;BME280;57495;49.922;7.966;2023-02-27T07:46:22;100923.13;;;0.86;61.91
70133;BME280;57495;49.922;7.966;2023-02-27T07:48:27;100920.38;;;0.89;61.90
70133;BME280;57495;49.922;7.966;2023-02-27T07:50:29;100916.53;;;0.98;60.66
70133;BME280;57495;49.922;7.966;2023-02-27T07:52:30;100916.00;;;1.12;60.39
70133;BME280;57495;49.922;7.966;2023-02-27T07:54:32;100928.81;;;1.21;60.30
70133;BME280;57495;49.922;7.966;2023-02-27T07:56:33;100920.19;;;1.40;59.98
70133;BME280;57495;49.922;7.966;2023-02-27T07:58:34;100920.91;;;1.43;58.57
70133;BME280;57495;49.922;7.966;2023-02-27T08:00:36;100919.81;;;1.49;58.88
70133;BME280;57495;49.922;7.966;2023-02-27T08:02:38;100917.59;;;1.60;58.37
70133;BME280;57495;49.922;7.966;2023-02-27T08:04:41;100924.50;;;1.41;58.30
70133;BME280;57495;49.922;7.966;2023-02-27T08:06:42;100920.09;;;1.63;58.41
70133;BME280;57495;49.922;7.966;2023-02-27T08:08:43;100926.53;;;1.78;57.75
70133;BME280;57495;49.922;7.966;2023-02-27T08:10:45;100928.56;;;1.92;57.81
70133;BME280;57495;49.922;7.966;2023-02-27T08:12:47;100927.66;;;1.93;56.55
70133;BME280;57495;49.922;7.966;2023-02-27T08:14:48;100930.69;;;2.04;56.92
70133;BME280;57495;49.922;7.966;2023-02-27T08:16:50;100932.81;;;2.17;56.43
70133;BME280;57495;49.922;7.966;2023-02-27T08:18:51;100927.78;;;2.10;56.28
70133;BME280;57495;49.922;7.966;2023-02-27T08:20:55;100936.75;;;2.27;56.30
70133;BME280;57495;49.922;7.966;2023-02-27T08:22:57;100930.88;;;2.41;55.67
70133;BME280;57495;49.922;7.966;2023-02-27T08:24:58;100927.94;;;2.47;55.24
70133;BME280;57495;49.922;7.966;2023-02-27T08:27:00;100935.84;;;2.28;54.88
70133;BME280;57495;49.922;7.966;2023-02-27T08:29:01;100930.88;;;2.41;54.11
70133;BME280;57495;49.922;7.966;2023-02-27T08:31:03;100933.34;;;2.44;54.55
70133;BME280;57495;49.922;7.966;2023-02-27T08:33:05;100931.75;;;2.60;54.93
70133;BME280;57495;49.922;7.966;2023-02-27T08:35:08;100941.34;;;2.63;54.68
70133;BME280;57495;49.922;7.966;2023-02-27T08:37:11;100933.78;;;2.74;54.21
70133;BME280;57495;49.922;7.966;2023-02-27T08:39:12;100935.84;;;2.86;54.54
70133;BME280;57495;49.922;7.966;2023-02-27T08:41:13;100938.06;;;2.96;53.51
70133;BME280;57495;49.922;7.966;2023-02-27T08:43:15;100937.22;;;2.95;53.01
70133;BME280;57495;49.922;7.966;2023-02-27T08:45:16;100941.13;;;2.86;52.67
70133;BME280;57495;49.922;7.966;2023-02-27T08:47:18;100939.19;;;2.90;52.85
70133;BME280;57495;49.922;7.966;2023-02-27T08:49:19;100931.16;;;2.93;52.34
70133;BME280;57495;49.922;7.966;2023-02-27T08:51:22;100936.53;;;3.09;52.83
70133;BME280;57495;49.922;7.966;2023-02-27T08:53:24;100935.50;;;3.13;52.57
70133;BME280;57495;49.922;7.966;2023-02-27T08:55:27;100939.34;;;3.25;52.49
70133;BME280;57495;49.922;7.966;2023-02-27T08:57:28;100934.97;;;3.60;53.06
70133;BME280;57495;49.922;7.966;2023-02-27T08:59:30;100932.66;;;3.72;51.94
70133;BME280;57495;49.922;7.966;2023-02-27T09:01:31;100928.56;;;3.83;50.78
70133;BME280;57495;49.922;7.966;2023-02-27T09:03:33;100928.31;;;3.71;50.52
70133;BME280;57495;49.922;7.966;2023-02-27T09:05:36;100941.69;;;3.67;51.48
70133;BME280;57495;49.922;7.966;2023-02-27T09:07:38;100924.44;;;3.78;51.09
70133;BME280;57495;49.922;7.966;2023-02-27T09:09:40;100926.63;;;3.87;51.53
70133;BME280;57495;49.922;7.966;2023-02-27T09:11:42;100923.03;;;3.88;50.60
70133;BME280;57495;49.922;7.966;2023-02-27T09:13:45;100935.47;;;4.03;50.68
70133;BME280;57495;49.922;7.966;2023-02-27T09:15:46;100923.03;;;4.05;49.72
70133;BME280;57495;49.922;7.966;2023-02-27T09:17:48;100933.16;;;3.97;50.24
70133;BME280;57495;49.922;7.966;2023-02-27T09:19:49;100925.66;;;3.88;49.74
70133;BME280;57495;49.922;7.966;2023-02-27T09:21:50;100923.25;;;4.01;50.29
70133;BME280;57495;49.922;7.966;2023-02-27T09:23:52;100923.97;;;4.04;50.74
70133;BME280;57495;49.922;7.966;2023-02-27T09:25:55;100926.13;;;4.14;50.61
70133;BME280;57495;49.922;7.966;2023-02-27T09:27:56;100928.31;;;4.23;50.14
70133;BME280;57495;49.922;7.966;2023-02-27T09:29:58;100936.88;;;4.28;50.95
70133;BME280;57495;49.922;7.966;2023-02-27T09:31:59;100935.34;;;4.57;50.86
70133;BME280;57495;49.922;7.966;2023-02-27T09:34:01;100937.50;;;4.67;49.48
70133;BME280;57495;49.922;7.966;2023-02-27T09:36:03;100932.97;;;4.69;49.26
70133;BME280;57495;49.922;7.966;2023-02-27T09:38:05;100945.25;;;4.54;49.29
70133;BME280;57495;49.922;7.966;2023-02-27T09:40:09;100937.25;;;4.38;48.83
70133;BME280;57495;49.922;7.966;2023-02-27T09:42:18;100944.00;;;4.61;49.44
70133;BME280;57495;49.922;7.966;2023-02-27T09:44:29;100949.78;;;4.85;48.91
70133;BME280;57495;49.922;7.966;2023-02-27T09:46:31;100942.81;;;4.82;48.80
70133;BME280;57495;49.922;7.966;2023-02-27T09:48:38;100944.03;;;4.93;49.61
70133;BME280;57495;49.922;7.966;2023-02-27T09:50:43;100951.22;;;4.91;49.82
70133;BME280;57495;49.922;7.966;2023-02-27T09:52:45;100953.03;;;5.06;49.13
70133;BME280;57495;49.922;7.966;2023-02-27T09:54:47;100945.78;;;5.26;48.64
70133;BME280;57495;49.922;7.966;2023-02-27T09:56:51;100954.81;;;4.90;48.73
70133;BME280;57495;49.922;7.966;2023-02-27T09:59:00;100952.88;;;5.09;48.78
70133;BME280;57495;49.922;7.966;2023-02-27T10:01:07;100955.34;;;4.96;48.53
70133;BME280;57495;49.922;7.966;2023-02-27T10:03:20;100957.09;;;4.96;49.35
70133;BME280;57495;49.922;7.966;2023-02-27T10:05:30;100959.56;;;5.16;48.74
70133;BME280;57495;49.922;7.966;2023-02-27T10:07:39;100961.69;;;5.26;47.83
70133;BME280;57495;49.922;7.966;2023-02-27T10:09:48;100961.69;;;5.57;47.64
70133;BME280;57495;49.922;7.966;2023-02-27T10:12:03;100957.81;;;5.63;48.57
70133;BME280;57495;49.922;7.966;2023-02-27T10:14:16;100958.63;;;5.95;47.60
70133;BME280;57495;49.922;7.966;2023-02-27T10:16:23;100953.22;;;5.97;47.58
70133;BME280;57495;49.922;7.966;2023-02-27T10:18:28;100961.13;;;5.98;47.08
70133;BME280;57495;49.922;7.966;2023-02-27T10:20:35;100965.25;;;6.33;47.53
70133;BME280;57495;49.922;7.966;2023-02-27T10:22:41;100963.16;;;6.68;47.58
70133;BME280;57495;49.922;7.966;2023-02-27T10:24:47;100962.16;;;6.55;46.79
70133;BME280;57495;49.922;7.966;2023-02-27T10:26:51;100966.06;;;7.07;46.56
70133;BME280;57495;49.922;7.966;2023-02-27T10:28:53;100971.84;;;7.13;46.26
70133;BME280;57495;49.922;7.966;2023-02-27T10:30:58;100965.38;;;7.03;46.51
70133;BME280;57495;49.922;7.966;2023-02-27T10:33:07;100962.22;;;7.25;46.81
70133;BME280;57495;49.922;7.966;2023-02-27T10:35:20;100980.75;;;7.27;45.04
70133;BME280;57495;49.922;7.966;2023-02-27T10:37:24;100966.81;;;6.66;45.12
70133;BME280;57495;49.922;7.966;2023-02-27T10:39:26;100970.16;;;6.69;45.73
70133;BME280;57495;49.922;7.966;2023-02-27T10:41:29;100976.34;;;6.11;46.69
70133;BME280;57495;49.922;7.966;2023-02-27T10:43:31;100980.44;;;6.16;46.45
70133;BME280;57495;49.922;7.966;2023-02-27T10:45:33;100975.25;;;6.44;46.59
70133;BME280;57495;49.922;7.966;2023-02-27T10:47:35;100974.34;;;6.88;46.47
70133;BME280;57495;49.922;7.966;2023-02-27T10:49:38;100973.97;;;6.80;45.98
70133;BME280;57495;49.922;7.966;2023-02-27T10:51:40;100978.50;;;6.49;46.11
70133;BME280;57495;49.922;7.966;2023-02-27T10:53:43;100978.03;;;6.56;46.52
70133;BME280;57495;49.922;7.966;2023-02-27T10:55:54;100978.81;;;6.87;46.52
70133;BME280;57495;49.922;7.966;2023-02-27T10:57:58;100970.53;;;7.06;46.53
70133;BME280;57495;49.922;7.966;2023-02-27T11:00:04;100972.50;;;7.17;46.75
70133;BME280;57495;49.922;7.966;2023-02-27T11:02:20;100971.41;;;7.48;44.92